sensor_id;sensor_type;location;lat;lon;timestamp;P1;durP1;ratioP1;P2;durP2;ratioP2
24761;SDS011;12865;51.934;10.330;2023-05-28T00:01:02;9.68;;;5.00;;
24761;SDS011;12865;51.934;10.330;2023-05-28T00:03:48;10.05;;;4.97;;
24761;SDS011;12865;51.934;10.330;2023-05-28T00:06:34;8.93;;;4.40;;
24761;SDS011;12865;51.934;10.330;2023-05-28T00:09:20;8.15;;;4.95;;
24761;SDS011;12865;51.934;10.330;2023-05-28T00:12:07;7.15;;;4.88;;
24761;SDS011;12865;51.934;10.330;2023-05-28T00:14:53;7.10;;;4.55;;
24761;SDS011;12865;51.934;10.330;2023-05-28T00:17:39;7.97;;;4.38;;
24761;SDS011;12865;51.934;10.330;2023-05-28T00:20:25;8.63;;;4.38;;
24761;SDS011;12865;51.934;10.330;2023-05-28T00:23:10;7.43;;;4.82;;
24761;SDS011;12865;51.934;10.330;2023-05-28T00:25:56;10.02;;;4.80;;
24761;SDS011;12865;51.934;10.330;2023-05-28T00:28:41;10.20;;;5.38;;
24761;SDS011;12865;51.934;10.330;2023-05-28T00:31:27;11.40;;;5.20;;
24761;SDS011;12865;51.934;10.330;2023-05-28T00:34:13;8.70;;;5.30;;
24761;SDS011;12865;51.934;10.330;2023-05-28T00:36:58;9.70;;;4.95;;
24761;SDS011;12865;51.934;10.330;2023-05-28T00:39:44;8.63;;;4.57;;
24761;SDS011;12865;51.934;10.330;2023-05-28T00:42:30;10.68;;;4.38;;
24761;SDS011;12865;51.934;10.330;2023-05-28T00:45:16;9.38;;;4.65;;
24761;SDS011;12865;51.934;10.330;2023-05-28T00:48:02;10.10;;;4.93;;
24761;SDS011;12865;51.934;10.330;2023-05-28T00:50:48;8.40;;;4.60;;
24761;SDS011;12865;51.934;10.330;2023-05-28T00:53:34;9.38;;;4.53;;
24761;SDS011;12865;51.934;10.330;2023-05-28T00:56:20;8.73;;;4.80;;
24761;SDS011;12865;51.934;10.330;2023-05-28T00:59:08;9.18;;;4.20;;
24761;SDS011;12865;51.934;10.330;2023-05-28T01:01:55;8.07;;;4.20;;
24761;SDS011;12865;51.934;10.330;2023-05-28T01:04:41;9.77;;;4.57;;
24761;SDS011;12865;51.934;10.330;2023-05-28T01:07:27;9.10;;;4.25;;
24761;SDS011;12865;51.934;10.330;2023-05-28T01:10:13;8.48;;;4.32;;
24761;SDS011;12865;51.934;10.330;2023-05-28T01:12:59;9.25;;;4.15;;
24761;SDS011;12865;51.934;10.330;2023-05-28T01:15:47;9.23;;;4.88;;
24761;SDS011;12865;51.934;10.330;2023-05-28T01:18:33;10.57;;;4.63;;
24761;SDS011;12865;51.934;10.330;2023-05-28T01:21:19;8.82;;;4.10;;
24761;SDS011;12865;51.934;10.330;2023-05-28T01:24:05;8.43;;;4.28;;
24761;SDS011;12865;51.934;10.330;2023-05-28T01:26:51;9.50;;;4.28;;
24761;SDS011;12865;51.934;10.330;2023-05-28T01:29:37;9.40;;;4.40;;
24761;SDS011;12865;51.934;10.330;2023-05-28T01:32:23;7.93;;;3.88;;
24761;SDS011;12865;51.934;10.330;2023-05-28T01:35:10;9.23;;;4.70;;
24761;SDS011;12865;51.934;10.330;2023-05-28T01:37:56;8.13;;;4.32;;
24761;SDS011;12865;51.934;10.330;2023-05-28T01:40:47;13.55;;;4.32;;
24761;SDS011;12865;51.934;10.330;2023-05-28T01:43:34;10.20;;;5.47;;
24761;SDS011;12865;51.934;10.330;2023-05-28T01:46:21;9.27;;;4.40;;
24761;SDS011;12865;51.934;10.330;2023-05-28T01:49:08;7.32;;;4.60;;
24761;SDS011;12865;51.934;10.330;2023-05-28T01:51:55;8.00;;;4.10;;
24761;SDS011;12865;51.934;10.330;2023-05-28T01:54:41;5.82;;;4.45;;
24761;SDS011;12865;51.934;10.330;2023-05-28T01:57:27;11.15;;;4.10;;
24761;SDS011;12865;51.934;10.330;2023-05-28T02:00:12;8.25;;;4.28;;
24761;SDS011;12865;51.934;10.330;2023-05-28T02:03:00;7.03;;;4.03;;
24761;SDS011;12865;51.934;10.330;2023-05-28T02:05:45;7.60;;;4.47;;
24761;SDS011;12865;51.934;10.330;2023-05-28T02:08:32;7.57;;;3.72;;
24761;SDS011;12865;51.934;10.330;2023-05-28T02:11:18;8.35;;;4.55;;
24761;SDS011;12865;51.934;10.330;2023-05-28T02:14:04;7.95;;;4.00;;
24761;SDS011;12865;51.934;10.330;2023-05-28T02:16:50;6.07;;;3.78;;
24761;SDS011;12865;51.934;10.330;2023-05-28T02:19:37;9.95;;;4.30;;
24761;SDS011;12865;51.934;10.330;2023-05-28T02:22:23;11.38;;;4.65;;
24761;SDS011;12865;51.934;10.330;2023-05-28T02:25:09;5.75;;;4.15;;
24761;SDS011;12865;51.934;10.330;2023-05-28T02:27:55;6.53;;;4.20;;
24761;SDS011;12865;51.934;10.330;2023-05-28T02:30:40;10.05;;;4.47;;
24761;SDS011;12865;51.934;10.330;2023-05-28T02:33:26;8.27;;;4.32;;
24761;SDS011;12865;51.934;10.330;2023-05-28T02:36:12;8.52;;;4.18;;
24761;SDS011;12865;51.934;10.330;2023-05-28T02:38:58;9.45;;;4.70;;
24761;SDS011;12865;51.934;10.330;2023-05-28T02:41:43;6.82;;;3.80;;
24761;SDS011;12865;51.934;10.330;2023-05-28T02:44:29;6.63;;;3.90;;
24761;SDS011;12865;51.934;10.330;2023-05-28T02:47:15;7.07;;;3.72;;
24761;SDS011;12865;51.934;10.330;2023-05-28T02:50:01;5.93;;;3.55;;
24761;SDS011;12865;51.934;10.330;2023-05-28T02:52:46;5.57;;;4.03;;
24761;SDS011;12865;51.934;10.330;2023-05-28T02:55:32;6.88;;;3.85;;
24761;SDS011;12865;51.934;10.330;2023-05-28T02:58:18;6.32;;;3.90;;
24761;SDS011;12865;51.934;10.330;2023-05-28T03:01:04;7.00;;;3.92;;
24761;SDS011;12865;51.934;10.330;2023-05-28T03:03:50;8.27;;;3.88;;
24761;SDS011;12865;51.934;10.330;2023-05-28T03:06:36;5.15;;;3.58;;
24761;SDS011;12865;51.934;10.330;2023-05-28T03:09:21;6.63;;;3.60;;
24761;SDS011;12865;51.934;10.330;2023-05-28T03:12:07;5.22;;;3.45;;
24761;SDS011;12865;51.934;10.330;2023-05-28T03:14:53;5.32;;;3.97;;
24761;SDS011;12865;51.934;10.330;2023-05-28T03:17:39;5.18;;;3.88;;
24761;SDS011;12865;51.934;10.330;2023-05-28T03:20:24;8.88;;;4.05;;
24761;SDS011;12865;51.934;10.330;2023-05-28T03:23:11;5.63;;;3.80;;
24761;SDS011;12865;51.934;10.330;2023-05-28T03:25:56;7.75;;;3.88;;
24761;SDS011;12865;51.934;10.330;2023-05-28T03:28:42;5.65;;;3.67;;
24761;SDS011;12865;51.934;10.330;2023-05-28T03:31:28;6.30;;;3.75;;
24761;SDS011;12865;51.934;10.330;2023-05-28T03:34:17;6.82;;;3.95;;
24761;SDS011;12865;51.934;10.330;2023-05-28T03:37:03;4.95;;;3.22;;
24761;SDS011;12865;51.934;10.330;2023-05-28T03:39:49;6.53;;;3.53;;
24761;SDS011;12865;51.934;10.330;2023-05-28T03:42:35;4.88;;;3.20;;
24761;SDS011;12865;51.934;10.330;2023-05-28T03:45:21;5.68;;;3.58;;
24761;SDS011;12865;51.934;10.330;2023-05-28T03:48:06;6.32;;;3.60;;
24761;SDS011;12865;51.934;10.330;2023-05-28T03:50:52;6.90;;;3.63;;
24761;SDS011;12865;51.934;10.330;2023-05-28T03:53:38;9.18;;;3.70;;
24761;SDS011;12865;51.934;10.330;2023-05-28T03:56:23;8.50;;;3.47;;
24761;SDS011;12865;51.934;10.330;2023-05-28T03:59:09;6.00;;;3.60;;
24761;SDS011;12865;51.934;10.330;2023-05-28T04:01:55;7.18;;;3.50;;
24761;SDS011;12865;51.934;10.330;2023-05-28T04:04:41;8.45;;;3.88;;
24761;SDS011;12865;51.934;10.330;2023-05-28T04:07:26;6.35;;;3.47;;
24761;SDS011;12865;51.934;10.330;2023-05-28T04:10:12;9.65;;;3.35;;
24761;SDS011;12865;51.934;10.330;2023-05-28T04:12:58;5.25;;;3.28;;
24761;SDS011;12865;51.934;10.330;2023-05-28T04:15:43;7.22;;;3.10;;
24761;SDS011;12865;51.934;10.330;2023-05-28T04:18:29;6.90;;;3.38;;
24761;SDS011;12865;51.934;10.330;2023-05-28T04:21:15;6.68;;;3.08;;
24761;SDS011;12865;51.934;10.330;2023-05-28T04:24:00;5.88;;;3.33;;
24761;SDS011;12865;51.934;10.330;2023-05-28T04:26:46;6.15;;;3.83;;
24761;SDS011;12865;51.934;10.330;2023-05-28T04:29:32;4.95;;;3.30;;
24761;SDS011;12865;51.934;10.330;2023-05-28T04:32:18;7.53;;;3.63;;
24761;SDS011;12865;51.934;10.330;2023-05-28T04:35:06;5.30;;;3.50;;
24761;SDS011;12865;51.934;10.330;2023-05-28T04:37:53;5.82;;;3.63;;
24761;SDS011;12865;51.934;10.330;2023-05-28T04:40:39;5.55;;;3.78;;
24761;SDS011;12865;51.934;10.330;2023-05-28T04:43:25;4.90;;;2.88;;
24761;SDS011;12865;51.934;10.330;2023-05-28T04:46:11;9.07;;;4.60;;
24761;SDS011;12865;51.934;10.330;2023-05-28T04:48:59;6.57;;;3.33;;
24761;SDS011;12865;51.934;10.330;2023-05-28T04:51:44;7.35;;;3.67;;
24761;SDS011;12865;51.934;10.330;2023-05-28T04:54:30;6.55;;;3.50;;
24761;SDS011;12865;51.934;10.330;2023-05-28T04:57:16;6.75;;;3.53;;
24761;SDS011;12865;51.934;10.330;2023-05-28T05:00:02;7.70;;;3.08;;
24761;SDS011;12865;51.934;10.330;2023-05-28T05:02:48;9.88;;;3.78;;
24761;SDS011;12865;51.934;10.330;2023-05-28T05:05:35;6.53;;;3.75;;
24761;SDS011;12865;51.934;10.330;2023-05-28T05:08:20;5.15;;;3.00;;
24761;SDS011;12865;51.934;10.330;2023-05-28T05:11:06;6.78;;;3.17;;
24761;SDS011;12865;51.934;10.330;2023-05-28T05:13:53;5.88;;;3.08;;
24761;SDS011;12865;51.934;10.330;2023-05-28T05:16:39;4.93;;;3.05;;
24761;SDS011;12865;51.934;10.330;2023-05-28T05:19:26;7.68;;;3.00;;
24761;SDS011;12865;51.934;10.330;2023-05-28T05:22:12;4.35;;;3.15;;
24761;SDS011;12865;51.934;10.330;2023-05-28T05:24:57;4.60;;;3.03;;
24761;SDS011;12865;51.934;10.330;2023-05-28T05:27:43;5.45;;;2.97;;
24761;SDS011;12865;51.934;10.330;2023-05-28T05:30:29;5.95;;;3.30;;
24761;SDS011;12865;51.934;10.330;2023-05-28T05:33:15;7.32;;;3.35;;
24761;SDS011;12865;51.934;10.330;2023-05-28T05:36:00;4.88;;;3.55;;
24761;SDS011;12865;51.934;10.330;2023-05-28T05:38:46;7.47;;;3.63;;
24761;SDS011;12865;51.934;10.330;2023-05-28T05:41:32;5.40;;;3.13;;
24761;SDS011;12865;51.934;10.330;2023-05-28T05:44:17;5.38;;;2.80;;
24761;SDS011;12865;51.934;10.330;2023-05-28T05:47:03;4.38;;;2.42;;
24761;SDS011;12865;51.934;10.330;2023-05-28T05:49:49;3.38;;;2.60;;
24761;SDS011;12865;51.934;10.330;2023-05-28T05:52:36;5.07;;;2.72;;
24761;SDS011;12865;51.934;10.330;2023-05-28T05:55:21;3.20;;;2.72;;
24761;SDS011;12865;51.934;10.330;2023-05-28T05:58:07;5.10;;;3.03;;
24761;SDS011;12865;51.934;10.330;2023-05-28T06:00:53;5.78;;;3.20;;
24761;SDS011;12865;51.934;10.330;2023-05-28T06:03:38;5.05;;;3.03;;
24761;SDS011;12865;51.934;10.330;2023-05-28T06:06:24;5.28;;;2.95;;
24761;SDS011;12865;51.934;10.330;2023-05-28T06:09:12;5.88;;;3.40;;
24761;SDS011;12865;51.934;10.330;2023-05-28T06:11:57;7.43;;;4.15;;
24761;SDS011;12865;51.934;10.330;2023-05-28T06:14:43;4.85;;;2.85;;
24761;SDS011;12865;51.934;10.330;2023-05-28T06:17:30;4.63;;;3.05;;
24761;SDS011;12865;51.934;10.330;2023-05-28T06:20:15;5.40;;;2.75;;
24761;SDS011;12865;51.934;10.330;2023-05-28T06:23:01;6.35;;;3.83;;
24761;SDS011;12865;51.934;10.330;2023-05-28T06:25:47;8.90;;;6.55;;
24761;SDS011;12865;51.934;10.330;2023-05-28T06:28:33;7.05;;;5.70;;
24761;SDS011;12865;51.934;10.330;2023-05-28T06:31:19;8.65;;;5.03;;
24761;SDS011;12865;51.934;10.330;2023-05-28T06:34:04;6.80;;;5.20;;
24761;SDS011;12865;51.934;10.330;2023-05-28T06:36:50;8.93;;;5.88;;
24761;SDS011;12865;51.934;10.330;2023-05-28T06:39:36;9.63;;;6.25;;
24761;SDS011;12865;51.934;10.330;2023-05-28T06:42:22;7.68;;;5.03;;
24761;SDS011;12865;51.934;10.330;2023-05-28T06:45:07;6.93;;;4.20;;
24761;SDS011;12865;51.934;10.330;2023-05-28T06:47:53;5.35;;;3.97;;
24761;SDS011;12865;51.934;10.330;2023-05-28T06:50:39;7.93;;;3.90;;
24761;SDS011;12865;51.934;10.330;2023-05-28T06:53:25;5.30;;;3.97;;
24761;SDS011;12865;51.934;10.330;2023-05-28T06:56:11;4.65;;;3.53;;
24761;SDS011;12865;51.934;10.330;2023-05-28T06:58:56;6.60;;;3.35;;
24761;SDS011;12865;51.934;10.330;2023-05-28T07:01:42;6.57;;;3.13;;
24761;SDS011;12865;51.934;10.330;2023-05-28T07:04:28;5.80;;;3.25;;
24761;SDS011;12865;51.934;10.330;2023-05-28T07:07:13;3.00;;;2.70;;
24761;SDS011;12865;51.934;10.330;2023-05-28T07:09:59;4.18;;;2.67;;
24761;SDS011;12865;51.934;10.330;2023-05-28T07:12:45;4.78;;;3.00;;
24761;SDS011;12865;51.934;10.330;2023-05-28T07:15:30;4.32;;;2.42;;
24761;SDS011;12865;51.934;10.330;2023-05-28T07:18:16;6.55;;;3.00;;
24761;SDS011;12865;51.934;10.330;2023-05-28T07:21:02;5.15;;;2.90;;
24761;SDS011;12865;51.934;10.330;2023-05-28T07:23:49;4.28;;;2.83;;
24761;SDS011;12865;51.934;10.330;2023-05-28T07:26:35;5.30;;;2.50;;
24761;SDS011;12865;51.934;10.330;2023-05-28T07:29:20;4.50;;;2.60;;
24761;SDS011;12865;51.934;10.330;2023-05-28T07:32:06;7.40;;;3.05;;
24761;SDS011;12865;51.934;10.330;2023-05-28T07:34:52;5.93;;;3.10;;
24761;SDS011;12865;51.934;10.330;2023-05-28T07:37:37;5.35;;;2.85;;
24761;SDS011;12865;51.934;10.330;2023-05-28T07:40:23;7.13;;;2.70;;
24761;SDS011;12865;51.934;10.330;2023-05-28T07:43:09;4.60;;;2.63;;
24761;SDS011;12865;51.934;10.330;2023-05-28T07:45:55;4.50;;;2.90;;
24761;SDS011;12865;51.934;10.330;2023-05-28T07:48:41;5.30;;;2.90;;
24761;SDS011;12865;51.934;10.330;2023-05-28T07:51:27;5.00;;;2.75;;
24761;SDS011;12865;51.934;10.330;2023-05-28T07:54:13;6.55;;;3.08;;
24761;SDS011;12865;51.934;10.330;2023-05-28T07:56:59;4.55;;;2.45;;
24761;SDS011;12865;51.934;10.330;2023-05-28T07:59:45;3.60;;;2.80;;
24761;SDS011;12865;51.934;10.330;2023-05-28T08:02:31;5.22;;;2.42;;
24761;SDS011;12865;51.934;10.330;2023-05-28T08:05:17;4.78;;;2.55;;
24761;SDS011;12865;51.934;10.330;2023-05-28T08:08:03;4.95;;;2.85;;
24761;SDS011;12865;51.934;10.330;2023-05-28T08:10:49;4.00;;;2.85;;
24761;SDS011;12865;51.934;10.330;2023-05-28T08:13:36;3.63;;;2.58;;
24761;SDS011;12865;51.934;10.330;2023-05-28T08:16:22;5.80;;;2.58;;
24761;SDS011;12865;51.934;10.330;2023-05-28T08:19:07;5.15;;;2.78;;
24761;SDS011;12865;51.934;10.330;2023-05-28T08:21:53;4.28;;;2.75;;
24761;SDS011;12865;51.934;10.330;2023-05-28T08:24:39;5.80;;;2.70;;
24761;SDS011;12865;51.934;10.330;2023-05-28T08:27:24;4.38;;;2.47;;
24761;SDS011;12865;51.934;10.330;2023-05-28T08:30:10;5.35;;;2.92;;
24761;SDS011;12865;51.934;10.330;2023-05-28T08:32:56;4.82;;;2.33;;
24761;SDS011;12865;51.934;10.330;2023-05-28T08:35:42;3.90;;;2.30;;
24761;SDS011;12865;51.934;10.330;2023-05-28T08:38:28;2.70;;;2.45;;
24761;SDS011;12865;51.934;10.330;2023-05-28T08:41:14;3.22;;;2.25;;
24761;SDS011;12865;51.934;10.330;2023-05-28T08:44:00;3.13;;;2.15;;
24761;SDS011;12865;51.934;10.330;2023-05-28T08:46:46;4.32;;;2.55;;
24761;SDS011;12865;51.934;10.330;2023-05-28T08:49:37;5.43;;;2.50;;
24761;SDS011;12865;51.934;10.330;2023-05-28T08:52:26;4.75;;;2.55;;
24761;SDS011;12865;51.934;10.330;2023-05-28T08:55:16;3.08;;;2.55;;
24761;SDS011;12865;51.934;10.330;2023-05-28T08:58:02;2.70;;;2.20;;
24761;SDS011;12865;51.934;10.330;2023-05-28T09:00:49;4.13;;;2.10;;
24761;SDS011;12865;51.934;10.330;2023-05-28T09:03:35;3.30;;;2.20;;
24761;SDS011;12865;51.934;10.330;2023-05-28T09:06:24;3.28;;;2.13;;
24761;SDS011;12865;51.934;10.330;2023-05-28T09:09:10;4.80;;;2.40;;
24761;SDS011;12865;51.934;10.330;2023-05-28T09:11:57;3.08;;;2.30;;
24761;SDS011;12865;51.934;10.330;2023-05-28T09:14:50;3.80;;;2.47;;
24761;SDS011;12865;51.934;10.330;2023-05-28T09:17:38;3.28;;;2.60;;
24761;SDS011;12865;51.934;10.330;2023-05-28T09:23:15;4.07;;;2.47;;
24761;SDS011;12865;51.934;10.330;2023-05-28T09:26:02;2.80;;;2.20;;
24761;SDS011;12865;51.934;10.330;2023-05-28T09:28:51;2.78;;;2.30;;
24761;SDS011;12865;51.934;10.330;2023-05-28T09:31:37;4.40;;;2.30;;
24761;SDS011;12865;51.934;10.330;2023-05-28T09:34:27;4.40;;;2.60;;
24761;SDS011;12865;51.934;10.330;2023-05-28T09:37:14;2.85;;;2.63;;
24761;SDS011;12865;51.934;10.330;2023-05-28T09:40:01;4.20;;;2.47;;
24761;SDS011;12865;51.934;10.330;2023-05-28T09:42:49;3.97;;;2.40;;
24761;SDS011;12865;51.934;10.330;2023-05-28T09:45:36;4.13;;;2.78;;
24761;SDS011;12865;51.934;10.330;2023-05-28T09:48:22;4.07;;;2.70;;
24761;SDS011;12865;51.934;10.330;2023-05-28T09:51:07;2.80;;;2.25;;
24761;SDS011;12865;51.934;10.330;2023-05-28T09:53:57;2.47;;;1.98;;
24761;SDS011;12865;51.934;10.330;2023-05-28T09:56:43;2.92;;;2.03;;
24761;SDS011;12865;51.934;10.330;2023-05-28T09:59:32;3.35;;;2.30;;
24761;SDS011;12865;51.934;10.330;2023-05-28T10:05:32;3.90;;;2.25;;
24761;SDS011;12865;51.934;10.330;2023-05-28T10:08:19;3.42;;;2.55;;
24761;SDS011;12865;51.934;10.330;2023-05-28T10:11:08;5.05;;;2.38;;
24761;SDS011;12865;51.934;10.330;2023-05-28T10:13:54;3.55;;;2.40;;
24761;SDS011;12865;51.934;10.330;2023-05-28T10:16:42;3.20;;;2.35;;
24761;SDS011;12865;51.934;10.330;2023-05-28T10:19:28;2.78;;;2.30;;
24761;SDS011;12865;51.934;10.330;2023-05-28T10:22:14;2.80;;;2.45;;
24761;SDS011;12865;51.934;10.330;2023-05-28T10:25:01;3.83;;;2.20;;
24761;SDS011;12865;51.934;10.330;2023-05-28T10:27:47;3.00;;;2.30;;
24761;SDS011;12865;51.934;10.330;2023-05-28T10:30:34;3.95;;;2.60;;
24761;SDS011;12865;51.934;10.330;2023-05-28T10:33:21;5.50;;;2.45;;
24761;SDS011;12865;51.934;10.330;2023-05-28T10:36:10;3.42;;;2.20;;
24761;SDS011;12865;51.934;10.330;2023-05-28T10:38:58;4.95;;;2.42;;
24761;SDS011;12865;51.934;10.330;2023-05-28T10:41:44;4.10;;;2.40;;
24761;SDS011;12865;51.934;10.330;2023-05-28T10:47:52;3.05;;;2.20;;
24761;SDS011;12865;51.934;10.330;2023-05-28T10:50:55;4.22;;;2.88;;
24761;SDS011;12865;51.934;10.330;2023-05-28T10:53:46;4.15;;;2.72;;
24761;SDS011;12865;51.934;10.330;2023-05-28T10:56:32;3.58;;;2.53;;
24761;SDS011;12865;51.934;10.330;2023-05-28T10:59:17;2.78;;;2.10;;
24761;SDS011;12865;51.934;10.330;2023-05-28T11:02:23;3.17;;;2.47;;
24761;SDS011;12865;51.934;10.330;2023-05-28T11:05:11;3.47;;;2.30;;
24761;SDS011;12865;51.934;10.330;2023-05-28T11:07:58;3.35;;;2.25;;
24761;SDS011;12865;51.934;10.330;2023-05-28T11:10:44;5.15;;;2.50;;
24761;SDS011;12865;51.934;10.330;2023-05-28T11:13:33;3.80;;;2.78;;
24761;SDS011;12865;51.934;10.330;2023-05-28T11:16:20;3.10;;;2.60;;
24761;SDS011;12865;51.934;10.330;2023-05-28T11:19:06;5.85;;;2.47;;
24761;SDS011;12865;51.934;10.330;2023-05-28T11:21:54;4.55;;;2.63;;
24761;SDS011;12865;51.934;10.330;2023-05-28T11:25:04;5.15;;;2.30;;
24761;SDS011;12865;51.934;10.330;2023-05-28T11:27:52;3.10;;;2.63;;
24761;SDS011;12865;51.934;10.330;2023-05-28T11:30:38;6.57;;;2.95;;
24761;SDS011;12865;51.934;10.330;2023-05-28T11:33:28;3.53;;;2.75;;
24761;SDS011;12865;51.934;10.330;2023-05-28T11:36:14;2.58;;;2.28;;
24761;SDS011;12865;51.934;10.330;2023-05-28T11:39:01;4.80;;;2.60;;
24761;SDS011;12865;51.934;10.330;2023-05-28T11:41:48;3.30;;;2.40;;
24761;SDS011;12865;51.934;10.330;2023-05-28T11:44:33;6.82;;;2.97;;
24761;SDS011;12865;51.934;10.330;2023-05-28T11:47:20;4.72;;;2.40;;
24761;SDS011;12865;51.934;10.330;2023-05-28T11:50:10;4.07;;;2.40;;
24761;SDS011;12865;51.934;10.330;2023-05-28T11:52:57;4.43;;;2.10;;
24761;SDS011;12865;51.934;10.330;2023-05-28T11:55:43;4.10;;;2.80;;
24761;SDS011;12865;51.934;10.330;2023-05-28T11:58:29;2.92;;;2.33;;
24761;SDS011;12865;51.934;10.330;2023-05-28T12:01:18;5.53;;;2.38;;
24761;SDS011;12865;51.934;10.330;2023-05-28T12:04:04;3.03;;;2.05;;
24761;SDS011;12865;51.934;10.330;2023-05-28T12:06:54;3.63;;;2.88;;
24761;SDS011;12865;51.934;10.330;2023-05-28T12:09:40;3.72;;;2.72;;
24761;SDS011;12865;51.934;10.330;2023-05-28T12:12:27;4.35;;;2.50;;
24761;SDS011;12865;51.934;10.330;2023-05-28T12:15:14;4.50;;;2.50;;
24761;SDS011;12865;51.934;10.330;2023-05-28T12:18:01;3.95;;;2.50;;
24761;SDS011;12865;51.934;10.330;2023-05-28T12:20:48;3.20;;;2.33;;
24761;SDS011;12865;51.934;10.330;2023-05-28T12:23:33;3.55;;;2.40;;
24761;SDS011;12865;51.934;10.330;2023-05-28T12:26:19;4.15;;;2.60;;
24761;SDS011;12865;51.934;10.330;2023-05-28T12:29:05;4.15;;;2.30;;
24761;SDS011;12865;51.934;10.330;2023-05-28T12:31:57;3.63;;;2.70;;
24761;SDS011;12865;51.934;10.330;2023-05-28T12:34:44;4.00;;;2.78;;
24761;SDS011;12865;51.934;10.330;2023-05-28T12:37:29;4.35;;;2.85;;
24761;SDS011;12865;51.934;10.330;2023-05-28T12:40:15;4.70;;;2.30;;
24761;SDS011;12865;51.934;10.330;2023-05-28T12:43:01;4.63;;;2.35;;
24761;SDS011;12865;51.934;10.330;2023-05-28T12:45:46;6.60;;;2.50;;
24761;SDS011;12865;51.934;10.330;2023-05-28T12:48:32;3.25;;;2.63;;
24761;SDS011;12865;51.934;10.330;2023-05-28T12:51:18;2.95;;;2.45;;
24761;SDS011;12865;51.934;10.330;2023-05-28T12:54:03;3.83;;;2.67;;
24761;SDS011;12865;51.934;10.330;2023-05-28T12:56:51;2.17;;;1.98;;
24761;SDS011;12865;51.934;10.330;2023-05-28T12:59:37;2.38;;;2.13;;
24761;SDS011;12865;51.934;10.330;2023-05-28T13:02:22;5.38;;;3.08;;
24761;SDS011;12865;51.934;10.330;2023-05-28T13:05:08;2.20;;;2.10;;
24761;SDS011;12865;51.934;10.330;2023-05-28T13:07:54;3.97;;;2.60;;
24761;SDS011;12865;51.934;10.330;2023-05-28T13:10:40;4.38;;;2.55;;
24761;SDS011;12865;51.934;10.330;2023-05-28T13:13:25;3.72;;;2.50;;
24761;SDS011;12865;51.934;10.330;2023-05-28T13:16:11;3.40;;;2.63;;
24761;SDS011;12865;51.934;10.330;2023-05-28T13:18:57;3.05;;;2.20;;
24761;SDS011;12865;51.934;10.330;2023-05-28T13:21:42;3.63;;;2.03;;
24761;SDS011;12865;51.934;10.330;2023-05-28T13:24:28;4.68;;;2.55;;
24761;SDS011;12865;51.934;10.330;2023-05-28T13:27:14;3.53;;;2.80;;
24761;SDS011;12865;51.934;10.330;2023-05-28T13:29:59;4.45;;;2.47;;
24761;SDS011;12865;51.934;10.330;2023-05-28T13:32:47;3.78;;;2.20;;
24761;SDS011;12865;51.934;10.330;2023-05-28T13:35:32;3.25;;;2.60;;
24761;SDS011;12865;51.934;10.330;2023-05-28T13:38:18;3.33;;;2.50;;
24761;SDS011;12865;51.934;10.330;2023-05-28T13:41:04;4.40;;;2.53;;
24761;SDS011;12865;51.934;10.330;2023-05-28T13:43:50;3.38;;;2.50;;
24761;SDS011;12865;51.934;10.330;2023-05-28T13:46:39;4.95;;;2.50;;
24761;SDS011;12865;51.934;10.330;2023-05-28T13:49:25;3.53;;;2.63;;
24761;SDS011;12865;51.934;10.330;2023-05-28T13:52:11;3.63;;;2.28;;
24761;SDS011;12865;51.934;10.330;2023-05-28T13:54:56;6.57;;;2.83;;
24761;SDS011;12865;51.934;10.330;2023-05-28T13:57:42;4.43;;;2.65;;
24761;SDS011;12865;51.934;10.330;2023-05-28T14:00:28;2.47;;;2.20;;
24761;SDS011;12865;51.934;10.330;2023-05-28T14:03:13;4.82;;;2.60;;
24761;SDS011;12865;51.934;10.330;2023-05-28T14:05:59;3.63;;;2.45;;
24761;SDS011;12865;51.934;10.330;2023-05-28T14:08:45;5.72;;;2.50;;
24761;SDS011;12865;51.934;10.330;2023-05-28T14:11:31;3.47;;;2.58;;
24761;SDS011;12865;51.934;10.330;2023-05-28T14:14:17;3.15;;;2.40;;
24761;SDS011;12865;51.934;10.330;2023-05-28T14:17:02;4.03;;;2.65;;
24761;SDS011;12865;51.934;10.330;2023-05-28T14:19:48;2.90;;;2.35;;
24761;SDS011;12865;51.934;10.330;2023-05-28T14:22:34;4.10;;;2.60;;
24761;SDS011;12865;51.934;10.330;2023-05-28T14:25:19;5.57;;;2.70;;
24761;SDS011;12865;51.934;10.330;2023-05-28T14:28:05;3.83;;;2.83;;
24761;SDS011;12865;51.934;10.330;2023-05-28T14:30:51;5.00;;;2.30;;
24761;SDS011;12865;51.934;10.330;2023-05-28T14:33:37;3.55;;;2.63;;
24761;SDS011;12865;51.934;10.330;2023-05-28T14:36:22;3.85;;;2.70;;
24761;SDS011;12865;51.934;10.330;2023-05-28T14:39:08;3.40;;;2.35;;
24761;SDS011;12865;51.934;10.330;2023-05-28T14:41:54;4.95;;;2.40;;
24761;SDS011;12865;51.934;10.330;2023-05-28T14:44:40;4.30;;;2.72;;
24761;SDS011;12865;51.934;10.330;2023-05-28T14:47:26;4.28;;;2.67;;
24761;SDS011;12865;51.934;10.330;2023-05-28T14:50:12;5.45;;;2.92;;
24761;SDS011;12865;51.934;10.330;2023-05-28T14:52:57;5.18;;;2.80;;
24761;SDS011;12865;51.934;10.330;2023-05-28T14:55:43;3.35;;;2.47;;
24761;SDS011;12865;51.934;10.330;2023-05-28T14:58:29;4.15;;;2.60;;
24761;SDS011;12865;51.934;10.330;2023-05-28T15:01:16;2.80;;;2.30;;
24761;SDS011;12865;51.934;10.330;2023-05-28T15:04:01;3.53;;;2.65;;
24761;SDS011;12865;51.934;10.330;2023-05-28T15:06:47;3.30;;;2.13;;
24761;SDS011;12865;51.934;10.330;2023-05-28T15:09:32;4.35;;;2.80;;
24761;SDS011;12865;51.934;10.330;2023-05-28T15:12:18;4.65;;;2.22;;
24761;SDS011;12865;51.934;10.330;2023-05-28T15:15:04;6.65;;;2.92;;
24761;SDS011;12865;51.934;10.330;2023-05-28T15:17:50;4.32;;;2.70;;
24761;SDS011;12865;51.934;10.330;2023-05-28T15:20:37;3.10;;;2.50;;
24761;SDS011;12865;51.934;10.330;2023-05-28T15:23:23;4.05;;;2.55;;
24761;SDS011;12865;51.934;10.330;2023-05-28T15:26:08;3.80;;;2.72;;
24761;SDS011;12865;51.934;10.330;2023-05-28T15:28:55;4.28;;;2.47;;
24761;SDS011;12865;51.934;10.330;2023-05-28T15:31:41;3.35;;;2.45;;
24761;SDS011;12865;51.934;10.330;2023-05-28T15:34:30;4.53;;;2.90;;
24761;SDS011;12865;51.934;10.330;2023-05-28T15:37:16;3.28;;;2.35;;
24761;SDS011;12865;51.934;10.330;2023-05-28T15:40:02;5.60;;;2.83;;
24761;SDS011;12865;51.934;10.330;2023-05-28T15:42:48;4.43;;;3.20;;
24761;SDS011;12865;51.934;10.330;2023-05-28T15:45:38;3.47;;;2.67;;
24761;SDS011;12865;51.934;10.330;2023-05-28T15:48:23;4.47;;;2.80;;
24761;SDS011;12865;51.934;10.330;2023-05-28T15:51:10;7.18;;;2.60;;
24761;SDS011;12865;51.934;10.330;2023-05-28T15:53:57;3.05;;;2.55;;
24761;SDS011;12865;51.934;10.330;2023-05-28T15:56:43;6.00;;;2.70;;
24761;SDS011;12865;51.934;10.330;2023-05-28T15:59:29;3.95;;;2.65;;
24761;SDS011;12865;51.934;10.330;2023-05-28T16:02:15;5.53;;;2.88;;
24761;SDS011;12865;51.934;10.330;2023-05-28T16:05:03;4.95;;;2.67;;
24761;SDS011;12865;51.934;10.330;2023-05-28T16:07:49;2.92;;;2.50;;
24761;SDS011;12865;51.934;10.330;2023-05-28T16:10:35;3.72;;;2.72;;
24761;SDS011;12865;51.934;10.330;2023-05-28T16:13:24;4.72;;;3.35;;
24761;SDS011;12865;51.934;10.330;2023-05-28T16:16:13;4.15;;;3.00;;
24761;SDS011;12865;51.934;10.330;2023-05-28T16:18:59;4.95;;;3.00;;
24761;SDS011;12865;51.934;10.330;2023-05-28T16:21:45;5.28;;;2.78;;
24761;SDS011;12865;51.934;10.330;2023-05-28T16:24:31;4.25;;;2.47;;
24761;SDS011;12865;51.934;10.330;2023-05-28T16:27:16;4.32;;;3.03;;
24761;SDS011;12865;51.934;10.330;2023-05-28T16:30:03;5.80;;;2.95;;
24761;SDS011;12865;51.934;10.330;2023-05-28T16:32:50;3.38;;;3.08;;
24761;SDS011;12865;51.934;10.330;2023-05-28T16:35:36;4.20;;;2.83;;